Time;durP1;ratioP1;P1;durP2;ratioP2;P2;SDS_P1;SDS_P2;PMS_P1;PMS_P2;Temp;Humidity;BMP_temperature;BMP_pressure;BME280_temperature;BME280_humidity;BME280_pressure;Samples;Min_cycle;Max_cycle;Signal;HPM_P1;HPM_P2
2023/12/04 00:01:11;;;;;;;;;;;0.50;99.90;;;;;;5011617;28;19934;-60
2023/12/04 00:03:37;;;;;;;;;;;0.50;99.90;;;;;;4977332;28;19929;-61
2023/12/04 00:06:03;;;;;;;;;;;0.40;99.90;;;;;;5013330;28;19925;-61
2023/12/04 00:08:28;;;;;;;;;;;0.50;99.90;;;;;;5010145;28;20373;-61
2023/12/04 00:10:54;;;;;;;;;;;0.50;99.90;;;;;;5017759;28;20236;-61
2023/12/04 00:13:19;;;;;;;;;;;0.50;99.90;;;;;;4995515;28;20024;-58
2023/12/04 00:15:45;;;;;;;;;;;0.50;99.90;;;;;;5013784;28;20004;-58
2023/12/04 00:18:10;;;;;;;;;;;0.50;99.90;;;;;;5008925;28;19956;-59
2023/12/04 00:20:36;;;;;;;;;;;0.50;99.90;;;;;;5008266;28;19934;-59
2023/12/04 00:23:02;;;;;;;;;;;0.50;99.90;;;;;;4994132;28;20367;-59
2023/12/04 00:25:28;;;;;;;;;;;0.50;99.90;;;;;;5015418;28;19932;-59
2023/12/04 00:27:53;;;;;;;;;;;0.50;99.90;;;;;;5011861;28;20266;-59
2023/12/04 00:30:19;;;;;;;;;;;0.50;99.90;;;;;;5009679;28;19937;-59
2023/12/04 00:32:44;;;;;;;;;;;0.50;99.90;;;;;;5013128;28;19973;-59
2023/12/04 00:35:10;;;;;;;;;;;0.50;99.90;;;;;;5010653;28;20024;-59
2023/12/04 00:37:38;;;;;;;;;;;0.50;99.90;;;;;;4994158;28;19968;-59
2023/12/04 00:40:04;;;;;;;;;;;0.40;99.90;;;;;;4992060;28;19931;-62
2023/12/04 00:42:30;;;;;;;;;;;0.50;99.90;;;;;;5008619;28;20361;-59
2023/12/04 00:44:55;;;;;;;;;;;0.50;99.90;;;;;;5010845;28;19933;-59
2023/12/04 00:47:21;;;;;;;;;;;0.50;99.90;;;;;;5010044;28;19933;-59
2023/12/04 00:49:46;;;;;;;;;;;0.50;99.90;;;;;;5008182;28;19921;-60
2023/12/04 00:52:12;;;;;;;;;;;0.50;99.90;;;;;;5009848;28;19935;-59
2023/12/04 00:54:43;;;;;;;;;;;0.50;99.90;;;;;;4996161;28;19976;-59
2023/12/04 00:57:09;;;;;;;;;;;0.50;99.90;;;;;;5011175;28;20424;-60
2023/12/04 00:59:34;;;;;;;;;;;0.50;99.90;;;;;;5008624;28;19930;-60
2023/12/04 01:02:00;;;;;;;;;;;0.50;99.90;;;;;;5009213;28;19921;-59
2023/12/04 01:04:26;;;;;;;;;;;0.50;99.90;;;;;;5011368;28;20019;-60
2023/12/04 01:06:52;;;;;;;;;;;0.50;99.90;;;;;;5012380;28;19971;-59
2023/12/04 01:09:17;;;;;;;;;;;0.50;99.90;;;;;;5011055;28;19972;-59
2023/12/04 01:11:43;;;;;;;;;;;0.50;99.90;;;;;;5010244;28;20364;-60
2023/12/04 01:14:08;;;;;;;;;;;0.60;99.90;;;;;;5010426;28;19934;-60
2023/12/04 01:16:34;;;;;;;;;;;0.60;99.90;;;;;;4989136;28;20498;-61
2023/12/04 01:18:59;;;;;;;;;;;0.60;99.90;;;;;;5006760;28;20349;-61
2023/12/04 01:21:25;;;;;;;;;;;0.50;99.90;;;;;;5005500;28;20602;-61
2023/12/04 01:23:51;;;;;;;;;;;0.60;99.90;;;;;;4993843;28;19929;-58
2023/12/04 01:26:16;;;;;;;;;;;0.60;99.90;;;;;;5011071;28;19926;-58
2023/12/04 01:28:42;;;;;;;;;;;0.60;99.90;;;;;;5010146;28;19929;-58
2023/12/04 01:31:07;;;;;;;;;;;0.60;99.90;;;;;;5006648;28;19935;-58
2023/12/04 01:33:33;;;;;;;;;;;0.60;99.90;;;;;;5011316;28;19933;-58
2023/12/04 01:35:58;;;;;;;;;;;0.60;99.90;;;;;;4990259;28;20005;-60
2023/12/04 01:38:24;;;;;;;;;;;0.60;99.90;;;;;;5010203;28;20404;-59
2023/12/04 01:40:49;;;;;;;;;;;0.60;99.90;;;;;;4993535;28;20071;-59
2023/12/04 01:43:18;;;;;;;;;;;0.60;99.90;;;;;;5010681;28;20345;-59
2023/12/04 01:45:44;;;;;;;;;;;0.60;99.90;;;;;;5011086;28;19925;-59
2023/12/04 01:48:10;;;;;;;;;;;0.60;99.90;;;;;;5010690;28;19937;-59
2023/12/04 01:50:36;;;;;;;;;;;0.60;99.90;;;;;;5008775;28;20019;-59
2023/12/04 01:53:02;;;;;;;;;;;0.70;99.90;;;;;;5015087;28;20092;-59
2023/12/04 01:55:29;;;;;;;;;;;0.70;99.90;;;;;;5007783;28;19937;-59
2023/12/04 01:57:56;;;;;;;;;;;0.70;99.90;;;;;;5009698;28;19926;-59
2023/12/04 02:00:21;;;;;;;;;;;0.70;99.90;;;;;;4989146;28;19929;-59
2023/12/04 02:02:47;;;;;;;;;;;0.70;99.90;;;;;;5006460;28;20351;-60
2023/12/04 02:05:13;;;;;;;;;;;0.70;99.90;;;;;;5007424;28;19955;-59
2023/12/04 02:07:40;;;;;;;;;;;0.70;99.90;;;;;;5008992;28;19971;-62
2023/12/04 02:10:06;;;;;;;;;;;0.70;99.90;;;;;;5009426;28;20013;-59
2023/12/04 02:12:31;;;;;;;;;;;0.70;99.90;;;;;;5006368;28;19933;-59
2023/12/04 02:14:57;;;;;;;;;;;0.70;99.90;;;;;;5011218;28;19929;-60
2023/12/04 02:17:23;;;;;;;;;;;0.70;99.90;;;;;;4989070;28;19925;-59
2023/12/04 02:19:48;;;;;;;;;;;0.70;99.90;;;;;;4991088;28;20492;-59
2023/12/04 02:22:14;;;;;;;;;;;0.70;99.90;;;;;;5013389;28;20017;-59
2023/12/04 02:24:40;;;;;;;;;;;0.70;99.90;;;;;;5009379;28;19932;-59
2023/12/04 02:27:25;;;;;;;;;;;0.70;99.90;;;;;;4990281;28;19934;-59
2023/12/04 02:29:52;;;;;;;;;;;0.70;99.90;;;;;;4989205;28;19996;-59
2023/12/04 02:32:19;;;;;;;;;;;0.70;99.90;;;;;;5010366;28;20335;-59
2023/12/04 02:34:46;;;;;;;;;;;0.70;99.90;;;;;;4990752;28;20288;-59
2023/12/04 02:37:12;;;;;;;;;;;0.70;99.90;;;;;;4993929;28;19937;-59
2023/12/04 02:39:38;;;;;;;;;;;0.70;99.90;;;;;;4994825;28;20780;-59
2023/12/04 02:42:04;;;;;;;;;;;0.70;99.90;;;;;;5009800;28;20012;-59
2023/12/04 02:44:29;;;;;;;;;;;0.70;99.90;;;;;;5007011;28;19933;-59
2023/12/04 02:46:55;;;;;;;;;;;0.80;99.90;;;;;;5003132;28;20272;-59
2023/12/04 02:49:20;;;;;;;;;;;0.70;99.90;;;;;;5008523;28;19926;-59
2023/12/04 02:51:46;;;;;;;;;;;0.70;99.90;;;;;;5008654;28;19947;-59
2023/12/04 02:54:12;;;;;;;;;;;0.70;99.90;;;;;;5007425;28;20131;-59
2023/12/04 02:56:37;;;;;;;;;;;0.70;99.90;;;;;;5009851;28;19935;-60
2023/12/04 02:59:03;;;;;;;;;;;0.70;99.90;;;;;;5011571;28;19940;-60
2023/12/04 03:01:28;;;;;;;;;;;0.70;99.90;;;;;;5005893;28;19929;-60
2023/12/04 03:03:54;;;;;;;;;;;0.70;99.90;;;;;;4986917;28;20158;-60
2023/12/04 03:06:19;;;;;;;;;;;0.70;99.90;;;;;;5007701;28;20304;-59
2023/12/04 03:08:45;;;;;;;;;;;0.70;99.90;;;;;;5009095;28;19941;-59
2023/12/04 03:11:10;;;;;;;;;;;0.70;99.90;;;;;;5009165;28;19933;-59
2023/12/04 03:13:36;;;;;;;;;;;0.70;99.90;;;;;;4993834;28;19925;-59
2023/12/04 03:16:01;;;;;;;;;;;0.70;99.90;;;;;;4990018;28;19930;-60
2023/12/04 03:18:28;;;;;;;;;;;0.70;99.90;;;;;;5006989;28;19933;-59
2023/12/04 03:20:54;;;;;;;;;;;0.80;99.90;;;;;;4988755;28;19925;-59
2023/12/04 03:23:19;;;;;;;;;;;0.80;99.90;;;;;;4990236;28;20300;-59
2023/12/04 03:25:45;;;;;;;;;;;0.80;99.90;;;;;;4990333;28;19933;-59
2023/12/04 03:28:11;;;;;;;;;;;0.80;99.90;;;;;;5009256;28;20297;-59
2023/12/04 03:30:36;;;;;;;;;;;0.80;99.90;;;;;;5011927;28;20292;-60
2023/12/04 03:33:02;;;;;;;;;;;0.80;99.90;;;;;;5006655;28;19933;-59
2023/12/04 03:35:27;;;;;;;;;;;0.80;99.90;;;;;;5011940;28;19931;-59
2023/12/04 03:37:53;;;;;;;;;;;0.80;99.90;;;;;;5013899;28;19921;-60
2023/12/04 03:40:18;;;;;;;;;;;0.80;99.90;;;;;;5010078;28;20343;-60
2023/12/04 03:42:44;;;;;;;;;;;0.80;99.90;;;;;;5012524;28;20466;-59
2023/12/04 03:45:09;;;;;;;;;;;0.80;99.90;;;;;;4990139;28;19980;-59
2023/12/04 03:47:35;;;;;;;;;;;0.80;99.90;;;;;;5013495;28;20024;-60
2023/12/04 03:50:01;;;;;;;;;;;0.90;99.90;;;;;;5011080;28;20304;-59
2023/12/04 03:52:26;;;;;;;;;;;0.80;99.90;;;;;;5012311;28;20395;-59
2023/12/04 03:54:52;;;;;;;;;;;0.80;99.90;;;;;;5011009;28;20467;-59
2023/12/04 03:57:18;;;;;;;;;;;0.80;99.90;;;;;;5010052;28;19940;-59
2023/12/04 03:59:43;;;;;;;;;;;0.80;99.90;;;;;;5012662;28;19930;-59
2023/12/04 04:02:09;;;;;;;;;;;0.80;99.90;;;;;;5008587;28;20336;-59
2023/12/04 04:04:34;;;;;;;;;;;0.80;99.90;;;;;;5011185;28;20401;-60
2023/12/04 04:07:00;;;;;;;;;;;0.80;99.90;;;;;;5011379;28;19932;-59
2023/12/04 04:09:25;;;;;;;;;;;0.80;99.90;;;;;;5013556;28;19921;-59
2023/12/04 04:11:51;;;;;;;;;;;0.80;99.90;;;;;;5005801;28;19969;-59
2023/12/04 04:14:17;;;;;;;;;;;0.80;99.90;;;;;;5012096;28;20347;-59
2023/12/04 04:16:42;;;;;;;;;;;0.80;99.90;;;;;;4990990;28;19983;-59
2023/12/04 04:19:08;;;;;;;;;;;0.80;99.90;;;;;;5011071;28;19925;-59
2023/12/04 04:21:34;;;;;;;;;;;0.80;99.90;;;;;;5012983;28;19928;-59
2023/12/04 04:23:59;;;;;;;;;;;0.80;99.90;;;;;;5010191;28;19933;-59
2023/12/04 04:26:25;;;;;;;;;;;0.80;99.90;;;;;;5013760;28;19925;-60
2023/12/04 04:28:50;;;;;;;;;;;0.80;99.90;;;;;;5014320;28;19929;-59
2023/12/04 04:31:16;;;;;;;;;;;0.80;99.90;;;;;;5007537;28;19940;-60
2023/12/04 04:33:41;;;;;;;;;;;0.80;99.90;;;;;;5013003;28;19932;-59
2023/12/04 04:36:09;;;;;;;;;;;0.80;99.90;;;;;;5009904;28;19977;-60
2023/12/04 04:38:34;;;;;;;;;;;0.80;99.90;;;;;;5010194;28;19984;-59
2023/12/04 04:41:00;;;;;;;;;;;0.80;99.90;;;;;;5011696;28;19933;-59
2023/12/04 04:43:25;;;;;;;;;;;0.80;99.90;;;;;;4991801;28;19925;-59
2023/12/04 04:45:51;;;;;;;;;;;0.80;99.90;;;;;;4988609;28;20005;-60
2023/12/04 04:48:16;;;;;;;;;;;0.80;99.90;;;;;;5011646;28;20363;-60
2023/12/04 04:50:42;;;;;;;;;;;0.80;99.90;;;;;;4992167;28;19933;-59
2023/12/04 04:53:07;;;;;;;;;;;0.80;99.90;;;;;;5012043;28;20412;-59
2023/12/04 04:55:33;;;;;;;;;;;0.80;99.90;;;;;;5013422;28;20036;-59
2023/12/04 04:57:58;;;;;;;;;;;0.90;99.90;;;;;;5012644;28;19925;-60
2023/12/04 05:00:25;;;;;;;;;;;0.90;99.90;;;;;;5009165;28;19926;-60
2023/12/04 05:02:50;;;;;;;;;;;0.80;99.90;;;;;;4987568;28;19987;-59
2023/12/04 05:05:16;;;;;;;;;;;0.80;99.90;;;;;;5010261;28;19964;-59
2023/12/04 05:07:41;;;;;;;;;;;0.90;99.90;;;;;;5006303;28;19967;-59
2023/12/04 05:10:07;;;;;;;;;;;0.90;99.90;;;;;;5009387;28;19937;-60
2023/12/04 05:12:32;;;;;;;;;;;0.80;99.90;;;;;;5006712;28;19933;-60
2023/12/04 05:14:58;;;;;;;;;;;0.90;99.90;;;;;;5009561;28;19936;-59
2023/12/04 05:17:23;;;;;;;;;;;0.90;99.90;;;;;;5010561;28;19933;-60
2023/12/04 05:19:49;;;;;;;;;;;0.90;99.90;;;;;;5012566;28;19932;-60
2023/12/04 05:22:14;;;;;;;;;;;0.90;99.90;;;;;;4995665;28;19925;-60
2023/12/04 05:24:40;;;;;;;;;;;0.90;99.90;;;;;;4995806;28;19978;-60
2023/12/04 05:27:06;;;;;;;;;;;0.90;99.90;;;;;;4996071;28;20297;-59
2023/12/04 05:29:31;;;;;;;;;;;0.90;99.90;;;;;;5009106;28;19926;-60
2023/12/04 05:31:57;;;;;;;;;;;1.00;99.90;;;;;;5009520;28;19938;-60
2023/12/04 05:34:23;;;;;;;;;;;0.90;99.90;;;;;;4988285;28;20019;-60
2023/12/04 05:36:48;;;;;;;;;;;0.90;99.90;;;;;;4991136;28;19926;-59
2023/12/04 05:39:14;;;;;;;;;;;0.90;99.90;;;;;;4992477;28;19926;-60
2023/12/04 05:41:39;;;;;;;;;;;0.90;99.90;;;;;;5007777;28;19964;-59
2023/12/04 05:44:05;;;;;;;;;;;0.90;99.90;;;;;;5007549;28;19941;-62
2023/12/04 05:46:31;;;;;;;;;;;1.00;99.90;;;;;;5005567;28;19932;-62
2023/12/04 05:48:56;;;;;;;;;;;1.00;99.90;;;;;;4968756;28;19979;-63
2023/12/04 05:51:22;;;;;;;;;;;1.00;99.90;;;;;;4984974;28;19933;-62
2023/12/04 05:53:47;;;;;;;;;;;1.00;99.90;;;;;;4990192;28;19925;-63
2023/12/04 05:56:13;;;;;;;;;;;1.00;99.90;;;;;;5010111;28;20369;-62
2023/12/04 05:58:38;;;;;;;;;;;1.00;99.90;;;;;;5010290;28;20659;-62
2023/12/04 06:01:06;;;;;;;;;;;1.00;99.90;;;;;;4987907;28;19933;-62
2023/12/04 06:03:32;;;;;;;;;;;1.00;99.90;;;;;;5006201;28;20389;-62
2023/12/04 06:05:57;;;;;;;;;;;1.00;99.90;;;;;;4989411;28;19937;-62
2023/12/04 06:08:23;;;;;;;;;;;1.00;99.90;;;;;;5007627;28;19933;-62
2023/12/04 06:10:48;;;;;;;;;;;1.00;99.90;;;;;;5010362;28;20265;-63
2023/12/04 06:13:14;;;;;;;;;;;1.00;99.90;;;;;;5010942;28;19931;-61
2023/12/04 06:15:39;;;;;;;;;;;1.00;99.90;;;;;;4990042;28;20500;-62
2023/12/04 06:18:05;;;;;;;;;;;1.00;99.90;;;;;;4976092;28;19929;-62
2023/12/04 06:20:30;;;;;;;;;;;1.00;99.90;;;;;;5006079;28;19925;-62
2023/12/04 06:22:56;;;;;;;;;;;1.00;99.90;;;;;;4986841;28;19930;-62
2023/12/04 06:25:22;;;;;;;;;;;1.00;99.90;;;;;;5011667;28;19972;-62
2023/12/04 06:27:48;;;;;;;;;;;1.00;99.90;;;;;;5011001;28;19925;-61
2023/12/04 06:30:14;;;;;;;;;;;1.00;99.90;;;;;;5008623;28;19940;-62
2023/12/04 06:32:40;;;;;;;;;;;1.00;99.90;;;;;;4991675;28;19933;-62
2023/12/04 06:35:05;;;;;;;;;;;1.00;99.90;;;;;;5010307;28;19937;-62
2023/12/04 06:37:31;;;;;;;;;;;1.00;99.90;;;;;;5009220;28;19940;-62
2023/12/04 06:39:59;;;;;;;;;;;1.00;99.90;;;;;;5003809;28;19933;-62
2023/12/04 06:42:24;;;;;;;;;;;1.00;99.90;;;;;;4988522;28;19937;-63
2023/12/04 06:44:50;;;;;;;;;;;1.00;99.90;;;;;;5009391;28;19926;-63
2023/12/04 06:47:17;;;;;;;;;;;1.00;99.90;;;;;;4991063;28;20378;-62
2023/12/04 06:49:43;;;;;;;;;;;1.00;99.90;;;;;;5007340;28;19933;-62
2023/12/04 06:52:08;;;;;;;;;;;1.00;99.90;;;;;;5006675;28;20447;-62
2023/12/04 06:54:33;;;;;;;;;;;1.00;99.90;;;;;;5009004;28;19933;-62
2023/12/04 06:56:59;;;;;;;;;;;1.00;99.90;;;;;;4990499;28;19933;-62
2023/12/04 06:59:24;;;;;;;;;;;1.00;99.90;;;;;;5009438;28;19929;-62
2023/12/04 07:01:50;;;;;;;;;;;1.00;99.90;;;;;;5007166;28;20396;-75
2023/12/04 07:04:20;;;;;;;;;;;1.00;99.90;;;;;;4973626;28;20451;-75
2023/12/04 07:06:46;;;;;;;;;;;1.00;99.90;;;;;;4971433;28;20008;-75
2023/12/04 07:09:12;;;;;;;;;;;1.00;99.90;;;;;;4983024;28;20008;-75
2023/12/04 07:11:37;;;;;;;;;;;1.00;99.90;;;;;;5012169;28;19959;-74
2023/12/04 07:14:03;;;;;;;;;;;1.00;99.90;;;;;;4989363;28;20336;-74
2023/12/04 07:16:28;;;;;;;;;;;1.00;99.90;;;;;;5020041;28;20969;-73
2023/12/04 07:18:54;;;;;;;;;;;1.10;99.90;;;;;;4996566;28;20404;-73
2023/12/04 07:21:19;;;;;;;;;;;1.10;99.90;;;;;;4990333;28;19932;-74
2023/12/04 07:23:45;;;;;;;;;;;1.10;99.90;;;;;;4990671;28;19986;-75
2023/12/04 07:26:10;;;;;;;;;;;1.00;99.90;;;;;;4992842;28;20232;-71
2023/12/04 07:28:36;;;;;;;;;;;1.00;99.90;;;;;;4990592;28;20036;-71
2023/12/04 07:31:02;;;;;;;;;;;1.00;99.90;;;;;;4991276;28;20262;-71
2023/12/04 07:33:27;;;;;;;;;;;1.00;99.90;;;;;;5010066;28;20355;-71
2023/12/04 07:35:53;;;;;;;;;;;1.00;99.90;;;;;;4973041;28;19992;-71
2023/12/04 07:38:18;;;;;;;;;;;1.00;99.90;;;;;;4994126;28;19925;-71
2023/12/04 07:40:44;;;;;;;;;;;1.00;99.90;;;;;;4992655;28;19926;-71
2023/12/04 07:43:10;;;;;;;;;;;1.00;99.90;;;;;;5014159;28;19979;-71
2023/12/04 07:45:36;;;;;;;;;;;1.00;99.90;;;;;;5011360;28;19929;-71
2023/12/04 07:48:05;;;;;;;;;;;1.00;99.90;;;;;;4975553;28;19988;-71
2023/12/04 07:50:31;;;;;;;;;;;1.00;99.90;;;;;;4986901;28;19976;-71
2023/12/04 07:52:56;;;;;;;;;;;1.00;99.90;;;;;;4993531;28;20323;-71
2023/12/04 07:55:22;;;;;;;;;;;1.10;99.90;;;;;;4981871;28;20341;-71
2023/12/04 07:57:48;;;;;;;;;;;1.10;99.90;;;;;;5008423;28;19922;-71
2023/12/04 08:00:17;;;;;;;;;;;1.00;99.90;;;;;;4991559;28;20125;-71
2023/12/04 08:02:44;;;;;;;;;;;1.10;99.90;;;;;;4991185;28;19979;-69
2023/12/04 08:05:10;;;;;;;;;;;1.10;99.90;;;;;;4986257;28;19930;-71
2023/12/04 08:07:38;;;;;;;;;;;1.00;99.90;;;;;;4981563;28;19933;-70
2023/12/04 08:10:04;;;;;;;;;;;1.10;99.90;;;;;;4978131;28;19934;-70
2023/12/04 08:12:30;;;;;;;;;;;1.10;99.90;;;;;;5006861;28;20152;-70
2023/12/04 08:14:55;;;;;;;;;;;1.00;99.90;;;;;;5007997;28;20439;-70
2023/12/04 08:17:21;;;;;;;;;;;1.10;99.90;;;;;;4989176;28;19993;-70
2023/12/04 08:19:46;;;;;;;;;;;1.10;99.90;;;;;;4994066;28;20231;-70
2023/12/04 08:22:12;;;;;;;;;;;1.10;99.90;;;;;;4992023;28;20071;-70
2023/12/04 08:24:38;;;;;;;;;;;1.10;99.90;;;;;;5011068;28;19936;-70
2023/12/04 08:27:03;;;;;;;;;;;1.10;99.90;;;;;;5012863;28;19925;-70
2023/12/04 08:29:29;;;;;;;;;;;1.10;99.90;;;;;;4993466;28;20295;-71
2023/12/04 08:31:54;;;;;;;;;;;1.10;99.90;;;;;;5006688;28;19926;-70
2023/12/04 08:34:20;;;;;;;;;;;1.20;99.90;;;;;;4994146;28;19933;-71
2023/12/04 08:36:45;;;;;;;;;;;1.20;99.90;;;;;;4993832;28;19925;-70
2023/12/04 08:39:11;;;;;;;;;;;1.20;99.90;;;;;;4991837;28;20459;-70
2023/12/04 08:41:37;;;;;;;;;;;1.20;99.90;;;;;;4986906;28;19926;-70
2023/12/04 08:44:02;;;;;;;;;;;1.20;99.90;;;;;;4993838;28;19983;-70
2023/12/04 08:46:28;;;;;;;;;;;1.20;99.90;;;;;;4986993;28;19926;-70
2023/12/04 08:48:53;;;;;;;;;;;1.30;99.90;;;;;;4992001;28;20303;-69
2023/12/04 08:51:19;;;;;;;;;;;1.30;99.90;;;;;;5010386;28;20379;-69
2023/12/04 08:53:44;;;;;;;;;;;1.30;99.90;;;;;;4986466;28;20583;-69
2023/12/04 08:56:10;;;;;;;;;;;1.30;99.90;;;;;;4982851;28;19930;-70
2023/12/04 08:58:36;;;;;;;;;;;1.30;99.90;;;;;;4983310;28;19938;-70
2023/12/04 09:01:02;;;;;;;;;;;1.30;99.90;;;;;;4983390;28;20632;-70
2023/12/04 09:03:27;;;;;;;;;;;1.40;99.90;;;;;;4998104;28;20019;-70
2023/12/04 09:05:54;;;;;;;;;;;1.40;99.90;;;;;;4967728;28;19988;-70
2023/12/04 09:08:22;;;;;;;;;;;1.40;99.90;;;;;;4994132;28;19925;-70
2023/12/04 09:10:47;;;;;;;;;;;1.40;99.90;;;;;;5011630;28;19925;-70
2023/12/04 09:13:13;;;;;;;;;;;1.40;99.90;;;;;;5007340;28;19974;-69
2023/12/04 09:15:38;;;;;;;;;;;1.40;99.90;;;;;;4989600;28;19940;-70
2023/12/04 09:18:04;;;;;;;;;;;1.40;99.90;;;;;;4988489;28;19929;-73
2023/12/04 09:20:30;;;;;;;;;;;1.40;99.90;;;;;;4990894;28;20341;-73
2023/12/04 09:22:55;;;;;;;;;;;1.40;99.90;;;;;;5010836;28;20384;-72
2023/12/04 09:25:21;;;;;;;;;;;1.40;99.90;;;;;;4991651;28;20450;-73
2023/12/04 09:27:46;;;;;;;;;;;1.40;99.90;;;;;;4991882;28;19933;-72
2023/12/04 09:30:13;;;;;;;;;;;1.30;99.90;;;;;;4996264;28;19928;-72
2023/12/04 09:32:39;;;;;;;;;;;1.30;99.90;;;;;;5003286;28;19925;-72
2023/12/04 09:35:05;;;;;;;;;;;1.30;99.90;;;;;;4974779;28;19944;-72
2023/12/04 09:37:30;;;;;;;;;;;1.30;99.90;;;;;;5014365;28;21232;-71
2023/12/04 09:39:56;;;;;;;;;;;1.30;99.90;;;;;;4991638;28;20472;-71
2023/12/04 09:42:21;;;;;;;;;;;1.30;99.90;;;;;;5015520;28;20006;-71
2023/12/04 09:44:51;;;;;;;;;;;1.30;99.90;;;;;;4992989;28;19933;-71
2023/12/04 09:47:17;;;;;;;;;;;1.30;99.90;;;;;;5013600;28;19926;-70
2023/12/04 09:49:43;;;;;;;;;;;1.30;99.90;;;;;;4994949;28;20303;-70
2023/12/04 09:52:10;;;;;;;;;;;1.40;99.90;;;;;;4977161;28;20474;-70
2023/12/04 09:54:35;;;;;;;;;;;1.40;99.90;;;;;;4993113;28;19933;-70
2023/12/04 09:57:01;;;;;;;;;;;1.40;99.90;;;;;;4994159;28;19927;-70
2023/12/04 09:59:29;;;;;;;;;;;1.40;99.90;;;;;;5008458;28;20024;-70
2023/12/04 10:01:54;;;;;;;;;;;1.40;99.90;;;;;;4993710;28;19925;-69
2023/12/04 10:04:21;;;;;;;;;;;1.50;99.90;;;;;;4996570;28;19932;-70
2023/12/04 10:06:49;;;;;;;;;;;1.50;99.90;;;;;;4992626;28;19925;-70
2023/12/04 10:09:17;;;;;;;;;;;1.50;99.90;;;;;;4998557;28;20027;-70
2023/12/04 10:11:44;;;;;;;;;;;1.60;99.90;;;;;;4992243;28;19930;-71
2023/12/04 10:14:19;;;;;;;;;;;1.60;99.90;;;;;;4990943;28;19922;-70
2023/12/04 10:16:45;;;;;;;;;;;1.60;99.90;;;;;;4985585;28;19933;-70
2023/12/04 10:19:14;;;;;;;;;;;1.70;99.90;;;;;;5004324;28;19932;-70
2023/12/04 10:21:39;;;;;;;;;;;1.70;99.90;;;;;;5008906;28;20419;-70
2023/12/04 10:24:05;;;;;;;;;;;1.80;99.90;;;;;;4991967;28;19929;-70
2023/12/04 10:26:30;;;;;;;;;;;1.80;99.90;;;;;;4989709;28;20991;-70
2023/12/04 10:29:00;;;;;;;;;;;1.90;99.90;;;;;;4991961;28;19948;-69
2023/12/04 10:31:25;;;;;;;;;;;1.90;99.90;;;;;;5010721;28;20230;-71
2023/12/04 10:33:51;;;;;;;;;;;1.90;99.90;;;;;;4988411;28;20372;-69
2023/12/04 10:36:17;;;;;;;;;;;2.00;99.90;;;;;;4985561;28;19937;-69
2023/12/04 10:38:43;;;;;;;;;;;2.00;99.90;;;;;;4987659;28;20303;-69
2023/12/04 10:41:12;;;;;;;;;;;2.00;99.90;;;;;;5012222;28;19948;-69
2023/12/04 10:43:46;;;;;;;;;;;2.00;99.90;;;;;;5002756;28;20531;-69
2023/12/04 10:46:12;;;;;;;;;;;2.00;99.90;;;;;;4989729;28;19932;-69
2023/12/04 10:48:38;;;;;;;;;;;2.00;99.90;;;;;;5005571;28;19975;-68
2023/12/04 10:51:05;;;;;;;;;;;2.00;99.90;;;;;;4990389;28;19968;-69
2023/12/04 10:53:30;;;;;;;;;;;2.00;99.90;;;;;;5007403;28;20079;-68
2023/12/04 10:55:58;;;;;;;;;;;2.00;99.90;;;;;;4975482;28;19921;-68
2023/12/04 10:58:26;;;;;;;;;;;2.00;99.90;;;;;;5005068;28;19933;-68
2023/12/04 11:00:53;;;;;;;;;;;2.00;99.90;;;;;;5009281;28;19975;-69
2023/12/04 11:03:22;;;;;;;;;;;2.00;99.90;;;;;;4988408;28;19933;-68
2023/12/04 11:05:51;;;;;;;;;;;2.00;99.90;;;;;;4989818;28;20026;-69
2023/12/04 11:08:18;;;;;;;;;;;2.00;99.90;;;;;;5008474;28;20011;-74
2023/12/04 11:11:03;;;;;;;;;;;2.00;99.90;;;;;;4992690;28;19971;-67
2023/12/04 11:13:30;;;;;;;;;;;2.10;99.90;;;;;;4990350;28;19932;-68
2023/12/04 11:16:13;;;;;;;;;;;2.10;99.90;;;;;;5006822;28;19934;-68
2023/12/04 11:18:42;;;;;;;;;;;2.10;99.90;;;;;;5009438;28;19925;-68
2023/12/04 11:21:09;;;;;;;;;;;2.10;99.90;;;;;;4989693;28;19929;-68
2023/12/04 11:23:35;;;;;;;;;;;2.10;99.90;;;;;;4994518;28;21504;-68
2023/12/04 11:26:01;;;;;;;;;;;2.10;99.90;;;;;;4988292;28;19980;-68
2023/12/04 11:28:27;;;;;;;;;;;2.10;99.90;;;;;;5012719;28;19971;-67
2023/12/04 11:30:54;;;;;;;;;;;2.10;99.90;;;;;;5011047;28;20274;-69
2023/12/04 11:33:20;;;;;;;;;;;2.10;99.90;;;;;;5010573;28;19933;-68
2023/12/04 11:35:45;;;;;;;;;;;2.10;99.90;;;;;;5012451;28;19972;-68
2023/12/04 11:38:14;;;;;;;;;;;2.10;99.90;;;;;;5015793;28;19929;-69
2023/12/04 11:40:42;;;;;;;;;;;2.00;99.90;;;;;;4996051;28;19932;-69
2023/12/04 11:43:27;;;;;;;;;;;2.10;99.90;;;;;;4989905;28;19956;-69
2023/12/04 11:45:53;;;;;;;;;;;2.10;99.90;;;;;;4990134;28;19926;-69
2023/12/04 11:48:23;;;;;;;;;;;2.10;99.90;;;;;;4990369;28;19925;-68
2023/12/04 11:50:49;;;;;;;;;;;2.10;99.90;;;;;;4991519;28;19926;-68
2023/12/04 11:53:14;;;;;;;;;;;2.20;99.90;;;;;;5011684;28;19933;-68
2023/12/04 11:55:41;;;;;;;;;;;2.20;99.90;;;;;;5013872;28;19958;-68
2023/12/04 11:58:10;;;;;;;;;;;2.20;99.90;;;;;;5012223;28;19933;-68
2023/12/04 12:00:37;;;;;;;;;;;2.20;99.90;;;;;;4995090;28;20372;-69
2023/12/04 12:03:06;;;;;;;;;;;2.20;99.90;;;;;;5011130;28;19934;-68
2023/12/04 12:05:33;;;;;;;;;;;2.20;99.90;;;;;;4992385;28;19939;-68
2023/12/04 12:08:05;;;;;;;;;;;2.30;99.90;;;;;;4991341;28;19926;-67
2023/12/04 12:10:31;;;;;;;;;;;2.20;99.90;;;;;;4995788;28;19951;-66
2023/12/04 12:12:57;;;;;;;;;;;2.20;99.90;;;;;;5015891;28;20009;-69
2023/12/04 12:15:23;;;;;;;;;;;2.20;99.90;;;;;;4994423;28;20067;-68
2023/12/04 12:17:49;;;;;;;;;;;2.20;99.90;;;;;;5012129;28;19956;-70
2023/12/04 12:20:14;;;;;;;;;;;2.20;99.90;;;;;;4995838;28;19929;-71
2023/12/04 12:22:43;;;;;;;;;;;2.20;99.90;;;;;;4998474;28;19932;-71
2023/12/04 12:25:09;;;;;;;;;;;2.20;99.90;;;;;;4996988;28;19980;-71
2023/12/04 12:27:35;;;;;;;;;;;2.20;99.90;;;;;;4996249;28;20019;-71
2023/12/04 12:30:01;;;;;;;;;;;2.20;99.90;;;;;;4995881;28;20008;-71
2023/12/04 12:32:26;;;;;;;;;;;2.20;99.90;;;;;;5010507;28;19956;-71
2023/12/04 12:34:52;;;;;;;;;;;2.20;99.90;;;;;;5009169;28;20012;-71
2023/12/04 12:37:18;;;;;;;;;;;2.20;99.90;;;;;;4995487;28;20388;-71
2023/12/04 12:39:44;;;;;;;;;;;2.30;99.90;;;;;;4996598;28;19929;-71
2023/12/04 12:42:09;;;;;;;;;;;2.20;99.90;;;;;;5018054;28;20039;-71
2023/12/04 12:44:40;;;;;;;;;;;2.20;99.90;;;;;;5014309;28;20278;-71
2023/12/04 12:47:07;;;;;;;;;;;2.20;99.90;;;;;;4991984;28;20081;-72
2023/12/04 12:49:33;;;;;;;;;;;2.20;99.90;;;;;;4997142;28;20014;-71
2023/12/04 12:52:02;;;;;;;;;;;2.20;99.90;;;;;;4996707;28;20008;-71
2023/12/04 12:54:32;;;;;;;;;;;2.20;99.90;;;;;;4994376;28;19932;-71
2023/12/04 12:57:01;;;;;;;;;;;2.20;99.90;;;;;;4996741;28;19955;-71
2023/12/04 12:59:27;;;;;;;;;;;2.20;99.90;;;;;;4993006;28;20408;-71
2023/12/04 13:01:53;;;;;;;;;;;2.20;99.90;;;;;;4995119;28;19961;-71
2023/12/04 13:04:18;;;;;;;;;;;2.20;99.90;;;;;;5013006;28;20052;-72
2023/12/04 13:06:44;;;;;;;;;;;2.20;99.90;;;;;;5013368;28;19971;-72
2023/12/04 13:09:17;;;;;;;;;;;2.20;99.90;;;;;;5012415;28;20277;-72
2023/12/04 13:11:44;;;;;;;;;;;2.20;99.90;;;;;;5010914;28;20286;-72
2023/12/04 13:14:09;;;;;;;;;;;2.20;99.90;;;;;;5011754;28;20412;-72
2023/12/04 13:16:35;;;;;;;;;;;2.20;99.90;;;;;;5013406;28;19932;-72
2023/12/04 13:19:01;;;;;;;;;;;2.20;99.90;;;;;;4995127;28;19932;-71
2023/12/04 13:21:27;;;;;;;;;;;2.20;99.90;;;;;;4996386;28;20038;-74
2023/12/04 13:23:53;;;;;;;;;;;2.20;99.90;;;;;;4998614;28;19980;-73
2023/12/04 13:26:20;;;;;;;;;;;2.20;99.90;;;;;;4988589;28;20146;-73
2023/12/04 13:28:45;;;;;;;;;;;2.20;99.90;;;;;;4993451;28;19925;-71
2023/12/04 13:31:11;;;;;;;;;;;2.20;99.90;;;;;;5011816;28;19932;-72
2023/12/04 13:33:36;;;;;;;;;;;2.20;99.90;;;;;;5009421;28;20305;-72
2023/12/04 13:36:02;;;;;;;;;;;2.20;99.90;;;;;;5013256;28;20302;-72
2023/12/04 13:38:28;;;;;;;;;;;2.20;99.90;;;;;;4993248;28;20377;-72
2023/12/04 13:40:59;;;;;;;;;;;2.20;99.90;;;;;;5013956;28;20368;-72
2023/12/04 13:46:12;;;;;;;;;;;2.20;99.90;;;;;;5015913;28;19930;-72
2023/12/04 13:48:41;;;;;;;;;;;2.20;99.90;;;;;;5010892;28;19999;-72
2023/12/04 13:51:10;;;;;;;;;;;2.20;99.90;;;;;;4994537;28;19940;-72
2023/12/04 13:53:39;;;;;;;;;;;2.20;99.90;;;;;;4975658;28;19934;-72
2023/12/04 13:58:48;;;;;;;;;;;2.20;99.90;;;;;;5008452;28;19925;-71
2023/12/04 14:01:14;;;;;;;;;;;2.20;99.90;;;;;;4996745;28;19987;-72
2023/12/04 14:03:43;;;;;;;;;;;2.20;99.90;;;;;;4997695;28;19929;-72
2023/12/04 14:06:09;;;;;;;;;;;2.20;99.90;;;;;;4990991;28;20270;-71
2023/12/04 14:08:35;;;;;;;;;;;2.20;99.90;;;;;;4995753;28;19948;-71
2023/12/04 14:11:04;;;;;;;;;;;2.20;99.90;;;;;;4995229;28;20300;-72
2023/12/04 14:13:32;;;;;;;;;;;2.20;99.90;;;;;;5008674;28;20009;-71
2023/12/04 14:15:57;;;;;;;;;;;2.20;99.90;;;;;;4995578;28;19929;-72
2023/12/04 14:18:23;;;;;;;;;;;2.20;99.90;;;;;;5011740;28;19936;-72
2023/12/04 14:20:48;;;;;;;;;;;2.20;99.90;;;;;;4990769;28;19995;-72
2023/12/04 14:23:14;;;;;;;;;;;2.10;99.90;;;;;;5011545;28;19925;-72
2023/12/04 14:25:40;;;;;;;;;;;2.10;99.90;;;;;;5007442;28;19929;-72
2023/12/04 14:28:06;;;;;;;;;;;2.10;99.90;;;;;;5006423;28;20043;-72
2023/12/04 14:30:32;;;;;;;;;;;2.20;99.90;;;;;;4996533;28;20013;-72